Time;durP1;ratioP1;P1;durP2;ratioP2;P2;SDS_P1;SDS_P2;PMS_P1;PMS_P2;Temp;Humidity;BMP_temperature;BMP_pressure;BME280_temperature;BME280_humidity;BME280_pressure;Samples;Min_cycle;Max_cycle;Signal;HPM_P1;HPM_P2
2022/08/29 00:00:59;;;;;;;7.53;5.75;;;;;;;;;;755586;183;815965;-61
2022/08/29 00:03:25;;;;;;;10.67;7.83;;;;;;;;;;736567;190;917290;-58
2022/08/29 00:05:51;;;;;;;10.47;6.33;;;;;;;;;;756131;184;908813;-63
2022/08/29 00:08:17;;;;;;;8.70;7.03;;;;;;;;;;756771;183;918713;-60
2022/08/29 00:10:43;;;;;;;11.70;7.50;;;;;;;;;;756966;184;919133;-59
2022/08/29 00:13:09;;;;;;;15.60;6.90;;;;;;;;;;748257;184;919405;-61
2022/08/29 00:15:34;;;;;;;9.60;7.57;;;;;;;;;;747580;185;918745;-60
2022/08/29 00:18:00;;;;;;;11.53;5.70;;;;;;;;;;760746;184;917361;-59
2022/08/29 00:20:26;;;;;;;10.07;6.57;;;;;;;;;;749469;184;920774;-60
2022/08/29 00:22:52;;;;;;;10.68;6.43;;;;;;;;;;749810;185;919006;-61
2022/08/29 00:25:18;;;;;;;9.50;6.97;;;;;;;;;;757870;185;918967;-62
2022/08/29 00:27:44;;;;;;;11.70;6.83;;;;;;;;;;751036;180;922162;-62
2022/08/29 00:30:10;;;;;;;11.53;6.40;;;;;;;;;;754299;184;919774;-62
2022/08/29 00:32:36;;;;;;;11.30;7.10;;;;;;;;;;751461;184;814275;-61
2022/08/29 00:35:02;;;;;;;8.80;6.27;;;;;;;;;;752411;184;916510;-61
2022/08/29 00:37:28;;;;;;;12.30;7.10;;;;;;;;;;746807;185;920694;-63
2022/08/29 00:39:54;;;;;;;8.87;7.37;;;;;;;;;;753138;185;818005;-62
2022/08/29 00:42:20;;;;;;;9.33;7.50;;;;;;;;;;756356;185;919281;-59
2022/08/29 00:44:45;;;;;;;11.93;7.20;;;;;;;;;;759497;184;908418;-62
2022/08/29 00:47:11;;;;;;;11.03;7.00;;;;;;;;;;751668;184;926850;-62
2022/08/29 00:49:38;;;;;;;9.70;6.97;;;;;;;;;;755866;185;916395;-62
2022/08/29 00:52:05;;;;;;;13.10;7.30;;;;;;;;;;754714;185;917896;-62
2022/08/29 00:54:30;;;;;;;9.23;6.30;;;;;;;;;;750488;184;919813;-60
2022/08/29 00:56:57;;;;;;;8.57;7.17;;;;;;;;;;752822;185;919263;-59
2022/08/29 00:59:23;;;;;;;12.07;8.17;;;;;;;;;;751343;184;922324;-62
2022/08/29 01:01:49;;;;;;;11.40;6.90;;;;;;;;;;754642;184;918463;-62
2022/08/29 01:04:15;;;;;;;16.73;8.20;;;;;;;;;;749522;185;915647;-63
2022/08/29 01:06:40;;;;;;;11.13;7.37;;;;;;;;;;762548;184;818562;-60
2022/08/29 01:09:06;;;;;;;8.50;6.10;;;;;;;;;;752857;184;833037;-59
2022/08/29 01:14:04;;;;;;;11.07;6.63;;;;;;;;;;761023;181;895356;-62
2022/08/29 01:16:30;;;;;;;9.60;7.50;;;;;;;;;;753907;184;919410;-62
2022/08/29 01:18:56;;;;;;;12.97;8.07;;;;;;;;;;752768;184;816847;-59
2022/08/29 01:21:33;;;;;;;10.17;7.97;;;;;;;;;;754952;183;822729;-63
2022/08/29 01:24:14;;;;;;;13.10;8.10;;;;;;;;;;759379;184;919403;-60
2022/08/29 01:26:39;;;;;;;14.23;9.63;;;;;;;;;;755100;185;920226;-61
2022/08/29 01:29:05;;;;;;;15.73;8.50;;;;;;;;;;752726;185;915397;-63
2022/08/29 01:31:37;;;;;;;15.80;8.43;;;;;;;;;;754934;184;897454;-60
2022/08/29 01:34:03;;;;;;;15.10;8.67;;;;;;;;;;749606;185;918440;-61
2022/08/29 01:36:32;;;;;;;12.77;8.83;;;;;;;;;;758057;185;919456;-61
2022/08/29 01:38:58;;;;;;;16.83;10.57;;;;;;;;;;752163;185;918953;-60
2022/08/29 01:41:23;;;;;;;17.37;9.02;;;;;;;;;;754642;184;919280;-61
2022/08/29 01:43:50;;;;;;;18.50;10.73;;;;;;;;;;753409;185;919454;-61
2022/08/29 01:46:15;;;;;;;18.17;11.50;;;;;;;;;;755311;183;916603;-59
2022/08/29 01:48:41;;;;;;;19.37;11.00;;;;;;;;;;746011;185;918572;-64
2022/08/29 01:51:07;;;;;;;11.60;9.30;;;;;;;;;;752071;185;921193;-63
2022/08/29 01:53:33;;;;;;;16.67;10.27;;;;;;;;;;756535;184;934488;-60
2022/08/29 01:55:59;;;;;;;25.93;11.40;;;;;;;;;;754037;184;817769;-61
2022/08/29 01:58:25;;;;;;;15.40;11.33;;;;;;;;;;751641;182;918764;-60
2022/08/29 02:00:51;;;;;;;14.83;10.13;;;;;;;;;;759106;185;919324;-60
2022/08/29 02:03:17;;;;;;;17.83;10.67;;;;;;;;;;752214;185;870059;-65
2022/08/29 02:05:43;;;;;;;16.27;11.27;;;;;;;;;;750743;184;918356;-61
2022/08/29 02:08:08;;;;;;;18.87;12.07;;;;;;;;;;752014;186;918345;-60
2022/08/29 02:10:35;;;;;;;14.47;10.17;;;;;;;;;;752314;184;918977;-63
2022/08/29 02:13:00;;;;;;;18.07;10.50;;;;;;;;;;755844;184;816783;-64
2022/08/29 02:15:26;;;;;;;15.90;10.40;;;;;;;;;;753807;180;817221;-61
2022/08/29 02:17:52;;;;;;;20.13;11.30;;;;;;;;;;762683;184;909042;-60
2022/08/29 02:20:18;;;;;;;20.23;11.10;;;;;;;;;;758215;184;817086;-64
2022/08/29 02:22:44;;;;;;;22.90;11.30;;;;;;;;;;755726;183;918867;-64
2022/08/29 02:27:42;;;;;;;17.20;12.63;;;;;;;;;;761223;184;624229;-61
2022/08/29 02:30:07;;;;;;;16.87;12.00;;;;;;;;;;759242;184;622179;-63
2022/08/29 02:32:33;;;;;;;19.57;12.37;;;;;;;;;;753935;184;934106;-64
2022/08/29 02:34:59;;;;;;;19.00;10.83;;;;;;;;;;747826;185;918333;-63
2022/08/29 02:37:24;;;;;;;16.30;10.67;;;;;;;;;;753159;185;918922;-61
2022/08/29 02:39:50;;;;;;;16.77;11.57;;;;;;;;;;746683;185;918550;-63
2022/08/29 02:42:16;;;;;;;24.03;12.13;;;;;;;;;;757207;185;918802;-65
2022/08/29 02:44:42;;;;;;;16.30;10.00;;;;;;;;;;757999;184;919508;-64
2022/08/29 02:47:09;;;;;;;17.20;11.10;;;;;;;;;;751444;185;915081;-59
2022/08/29 02:49:34;;;;;;;24.60;13.03;;;;;;;;;;752461;186;915178;-61
2022/08/29 02:52:01;;;;;;;17.97;11.57;;;;;;;;;;754132;182;915759;-64
2022/08/29 02:54:25;;;;;;;19.67;12.50;;;;;;;;;;751951;185;918650;-64
2022/08/29 02:56:51;;;;;;;24.73;13.63;;;;;;;;;;754034;184;919426;-64
2022/08/29 02:59:17;;;;;;;17.63;11.60;;;;;;;;;;754345;185;919439;-61
2022/08/29 03:01:43;;;;;;;22.67;12.27;;;;;;;;;;748054;185;923931;-64
2022/08/29 03:04:09;;;;;;;25.92;11.77;;;;;;;;;;756929;184;917489;-62
2022/08/29 03:06:35;;;;;;;27.27;13.93;;;;;;;;;;754026;185;919621;-63
2022/08/29 03:09:01;;;;;;;22.57;12.50;;;;;;;;;;734823;188;918909;-61
2022/08/29 03:11:27;;;;;;;23.27;14.40;;;;;;;;;;752553;185;918658;-64
2022/08/29 03:13:52;;;;;;;22.70;13.13;;;;;;;;;;757377;184;918612;-61
2022/08/29 03:16:18;;;;;;;19.20;13.00;;;;;;;;;;760080;182;915302;-65
2022/08/29 03:18:44;;;;;;;18.57;12.97;;;;;;;;;;755165;181;916172;-63
2022/08/29 03:21:13;;;;;;;27.23;12.10;;;;;;;;;;756731;185;917223;-65
2022/08/29 03:23:39;;;;;;;19.57;12.03;;;;;;;;;;762257;185;918845;-64
2022/08/29 03:26:05;;;;;;;16.90;12.23;;;;;;;;;;749855;185;920102;-61
2022/08/29 03:28:30;;;;;;;24.97;13.67;;;;;;;;;;752238;185;920800;-63
2022/08/29 03:30:56;;;;;;;15.83;11.80;;;;;;;;;;764337;183;817372;-63
2022/08/29 03:33:22;;;;;;;14.53;11.13;;;;;;;;;;754079;183;918405;-64
2022/08/29 03:35:48;;;;;;;16.60;11.10;;;;;;;;;;754242;184;919215;-61
2022/08/29 03:38:14;;;;;;;16.03;12.60;;;;;;;;;;757879;184;919304;-60
2022/08/29 03:40:40;;;;;;;18.00;12.00;;;;;;;;;;755623;184;916553;-61
2022/08/29 03:43:06;;;;;;;22.10;13.00;;;;;;;;;;757325;183;817044;-59
2022/08/29 03:45:31;;;;;;;22.37;12.93;;;;;;;;;;752758;184;917735;-60
2022/08/29 03:47:57;;;;;;;21.50;12.87;;;;;;;;;;750595;184;921993;-61
2022/08/29 03:50:23;;;;;;;19.23;11.00;;;;;;;;;;750803;185;913921;-60
2022/08/29 03:52:49;;;;;;;19.73;12.17;;;;;;;;;;755394;184;905928;-60
2022/08/29 03:55:15;;;;;;;16.77;11.57;;;;;;;;;;755685;185;914211;-62
2022/08/29 03:57:41;;;;;;;16.00;11.90;;;;;;;;;;752744;182;914419;-60
2022/08/29 04:00:09;;;;;;;13.30;11.33;;;;;;;;;;755812;182;922439;-63
2022/08/29 04:02:35;;;;;;;20.10;12.30;;;;;;;;;;759436;184;919085;-63
2022/08/29 04:05:06;;;;;;;18.83;12.47;;;;;;;;;;752699;185;919254;-61
2022/08/29 04:07:36;;;;;;;20.20;11.02;;;;;;;;;;756135;184;922015;-64
2022/08/29 04:10:03;;;;;;;25.20;10.70;;;;;;;;;;751787;182;918252;-64
2022/08/29 04:12:29;;;;;;;29.40;19.63;;;;;;;;;;760041;184;919110;-62
2022/08/29 04:14:54;;;;;;;17.40;12.07;;;;;;;;;;754688;183;918158;-60
2022/08/29 04:17:20;;;;;;;15.73;11.70;;;;;;;;;;749462;185;918523;-60
2022/08/29 04:19:46;;;;;;;17.07;11.93;;;;;;;;;;753122;185;816613;-59
2022/08/29 04:22:12;;;;;;;16.77;11.40;;;;;;;;;;752706;184;922782;-63
2022/08/29 04:24:38;;;;;;;16.27;10.73;;;;;;;;;;754206;184;924574;-63
2022/08/29 04:27:04;;;;;;;17.83;12.83;;;;;;;;;;754222;184;918970;-64
2022/08/29 04:29:30;;;;;;;25.87;12.30;;;;;;;;;;754966;185;816818;-64
2022/08/29 04:31:55;;;;;;;22.03;12.00;;;;;;;;;;751484;183;919026;-59
2022/08/29 04:34:21;;;;;;;16.20;12.03;;;;;;;;;;753785;184;909738;-60
2022/08/29 04:36:47;;;;;;;16.40;12.50;;;;;;;;;;757323;184;916284;-61
2022/08/29 04:39:13;;;;;;;25.17;14.33;;;;;;;;;;746690;184;915866;-60
2022/08/29 04:41:39;;;;;;;23.03;13.43;;;;;;;;;;748736;184;817161;-63
2022/08/29 04:44:05;;;;;;;20.00;12.13;;;;;;;;;;761832;184;918857;-60
2022/08/29 04:46:30;;;;;;;17.67;14.10;;;;;;;;;;754069;180;918744;-63
2022/08/29 04:48:56;;;;;;;18.27;12.40;;;;;;;;;;749409;184;918047;-63
2022/08/29 04:51:22;;;;;;;15.10;12.10;;;;;;;;;;758593;184;896002;-60
2022/08/29 04:53:49;;;;;;;25.43;12.90;;;;;;;;;;754429;182;926476;-63
2022/08/29 04:56:15;;;;;;;19.83;13.07;;;;;;;;;;751880;184;919284;-59
2022/08/29 04:58:41;;;;;;;21.50;13.50;;;;;;;;;;754176;184;918773;-63
2022/08/29 05:01:06;;;;;;;22.55;13.05;;;;;;;;;;754734;184;816739;-60
2022/08/29 05:03:32;;;;;;;19.63;13.73;;;;;;;;;;756457;184;919084;-60
2022/08/29 05:05:58;;;;;;;13.77;10.75;;;;;;;;;;752481;185;920165;-62
2022/08/29 05:08:24;;;;;;;20.37;12.37;;;;;;;;;;753234;184;918387;-64
2022/08/29 05:10:50;;;;;;;14.73;11.83;;;;;;;;;;740927;188;918041;-63
2022/08/29 05:13:16;;;;;;;20.90;11.40;;;;;;;;;;752729;185;912368;-63
2022/08/29 05:15:42;;;;;;;19.63;13.10;;;;;;;;;;748517;186;918327;-61
2022/08/29 05:18:07;;;;;;;16.90;12.27;;;;;;;;;;756211;185;918858;-63
2022/08/29 05:20:33;;;;;;;20.53;12.23;;;;;;;;;;747924;185;920792;-62
2022/08/29 05:22:59;;;;;;;22.83;11.20;;;;;;;;;;750655;181;917908;-59
2022/08/29 05:25:25;;;;;;;12.53;9.07;;;;;;;;;;759160;184;914044;-60
2022/08/29 05:27:51;;;;;;;14.90;9.20;;;;;;;;;;755475;184;918120;-61
2022/08/29 05:30:17;;;;;;;13.20;9.03;;;;;;;;;;760995;184;918915;-60
2022/08/29 05:32:42;;;;;;;14.27;7.50;;;;;;;;;;760418;183;919507;-64
2022/08/29 05:35:08;;;;;;;13.20;8.97;;;;;;;;;;754534;184;919052;-63
2022/08/29 05:37:34;;;;;;;14.43;8.50;;;;;;;;;;755742;184;915876;-58
2022/08/29 05:40:00;;;;;;;16.60;9.10;;;;;;;;;;758488;182;818068;-60
2022/08/29 05:42:26;;;;;;;11.60;8.17;;;;;;;;;;754782;184;919285;-63
2022/08/29 05:44:52;;;;;;;14.13;8.90;;;;;;;;;;754669;183;919201;-63
2022/08/29 05:47:18;;;;;;;15.00;9.33;;;;;;;;;;748187;185;921399;-60
2022/08/29 05:49:44;;;;;;;19.77;10.20;;;;;;;;;;758763;184;874724;-63
2022/08/29 05:52:09;;;;;;;14.50;10.10;;;;;;;;;;751859;182;789694;-63
2022/08/29 05:54:35;;;;;;;11.00;8.93;;;;;;;;;;754824;183;926265;-59
2022/08/29 05:57:01;;;;;;;14.87;9.33;;;;;;;;;;756483;184;917737;-63
2022/08/29 05:59:27;;;;;;;18.17;9.93;;;;;;;;;;752948;184;903492;-63
2022/08/29 06:01:53;;;;;;;13.30;9.67;;;;;;;;;;754331;183;919626;-59
2022/08/29 06:04:19;;;;;;;17.30;10.20;;;;;;;;;;755916;184;918556;-62
2022/08/29 06:06:44;;;;;;;14.93;9.27;;;;;;;;;;749856;184;915835;-63
2022/08/29 06:09:10;;;;;;;15.30;7.10;;;;;;;;;;753548;184;918227;-59
2022/08/29 06:11:36;;;;;;;16.80;7.37;;;;;;;;;;748592;184;894120;-62
2022/08/29 06:14:02;;;;;;;13.40;6.90;;;;;;;;;;760245;182;920647;-59
2022/08/29 06:16:28;;;;;;;11.90;7.17;;;;;;;;;;750424;185;923763;-58
2022/08/29 06:18:54;;;;;;;17.40;7.30;;;;;;;;;;747575;185;918651;-61
2022/08/29 06:21:19;;;;;;;10.23;7.47;;;;;;;;;;759169;184;895557;-59
2022/08/29 06:23:45;;;;;;;10.33;6.80;;;;;;;;;;754009;184;817202;-61
2022/08/29 06:26:11;;;;;;;12.55;6.70;;;;;;;;;;753629;184;875211;-63
2022/08/29 06:28:37;;;;;;;9.87;6.40;;;;;;;;;;753928;185;919799;-58
2022/08/29 06:31:06;;;;;;;13.40;6.67;;;;;;;;;;754650;182;919199;-62
2022/08/29 06:33:31;;;;;;;14.17;7.47;;;;;;;;;;756178;184;920198;-57
2022/08/29 06:35:57;;;;;;;14.07;6.20;;;;;;;;;;751989;184;920311;-59
2022/08/29 06:38:23;;;;;;;12.98;7.40;;;;;;;;;;752315;185;919329;-59
2022/08/29 06:40:49;;;;;;;13.57;7.47;;;;;;;;;;749264;185;909965;-59
2022/08/29 06:43:15;;;;;;;9.60;6.73;;;;;;;;;;753100;184;918904;-59
2022/08/29 06:45:41;;;;;;;17.10;7.43;;;;;;;;;;755302;184;907277;-61
2022/08/29 06:48:07;;;;;;;11.80;6.83;;;;;;;;;;754960;184;918948;-64
2022/08/29 06:50:33;;;;;;;11.77;6.40;;;;;;;;;;751807;184;919108;-62
2022/08/29 06:52:59;;;;;;;10.90;7.10;;;;;;;;;;753812;182;909798;-62
2022/08/29 06:55:24;;;;;;;15.00;7.50;;;;;;;;;;749245;185;920354;-62
2022/08/29 06:57:50;;;;;;;7.37;6.30;;;;;;;;;;753237;184;1021109;-63
2022/08/29 07:00:16;;;;;;;11.50;7.40;;;;;;;;;;752280;185;919568;-59
2022/08/29 07:02:42;;;;;;;10.53;7.60;;;;;;;;;;759046;185;918918;-63
2022/08/29 07:05:08;;;;;;;17.73;7.50;;;;;;;;;;750330;184;913246;-59
2022/08/29 07:07:34;;;;;;;12.50;7.03;;;;;;;;;;751518;184;910113;-63
2022/08/29 07:10:00;;;;;;;12.10;7.13;;;;;;;;;;761314;184;913624;-64
2022/08/29 07:12:26;;;;;;;13.10;6.43;;;;;;;;;;753855;182;919191;-59
2022/08/29 07:14:52;;;;;;;18.80;7.80;;;;;;;;;;754876;184;919211;-63
2022/08/29 07:17:19;;;;;;;12.37;7.50;;;;;;;;;;760587;184;917696;-59
2022/08/29 07:19:44;;;;;;;10.30;6.53;;;;;;;;;;753196;184;920002;-61
2022/08/29 07:22:10;;;;;;;9.40;7.07;;;;;;;;;;758184;184;919081;-63
2022/08/29 07:24:36;;;;;;;9.60;7.20;;;;;;;;;;750078;185;918154;-63
2022/08/29 07:27:02;;;;;;;12.03;7.37;;;;;;;;;;753770;185;923953;-65
2022/08/29 07:29:28;;;;;;;18.63;7.70;;;;;;;;;;745958;185;919500;-59
2022/08/29 07:31:54;;;;;;;10.90;8.02;;;;;;;;;;752422;184;918480;-64
2022/08/29 07:34:19;;;;;;;9.73;6.57;;;;;;;;;;755474;184;918599;-65
2022/08/29 07:36:45;;;;;;;12.10;7.47;;;;;;;;;;750697;184;918282;-64
2022/08/29 07:39:11;;;;;;;11.13;8.50;;;;;;;;;;753394;184;919279;-64
2022/08/29 07:41:37;;;;;;;14.37;7.47;;;;;;;;;;755436;185;920936;-60
2022/08/29 07:44:03;;;;;;;11.25;7.68;;;;;;;;;;751307;182;815566;-59
2022/08/29 07:46:30;;;;;;;13.23;6.90;;;;;;;;;;757034;181;918851;-59
2022/08/29 07:48:55;;;;;;;14.83;7.73;;;;;;;;;;751701;184;922172;-63
2022/08/29 07:51:21;;;;;;;11.13;7.67;;;;;;;;;;750422;185;817042;-58
2022/08/29 07:53:46;;;;;;;16.07;7.73;;;;;;;;;;749195;185;815365;-58
2022/08/29 07:56:12;;;;;;;13.20;6.62;;;;;;;;;;750529;185;924925;-66
2022/08/29 07:58:38;;;;;;;11.47;7.83;;;;;;;;;;755070;182;917015;-59
2022/08/29 08:01:04;;;;;;;9.50;7.83;;;;;;;;;;755035;184;911132;-59
2022/08/29 08:03:30;;;;;;;9.87;7.97;;;;;;;;;;753349;181;882217;-65
2022/08/29 08:05:56;;;;;;;12.43;8.63;;;;;;;;;;757880;185;916700;-59
2022/08/29 08:08:21;;;;;;;15.20;8.40;;;;;;;;;;748086;180;918910;-57
2022/08/29 08:10:48;;;;;;;13.80;8.90;;;;;;;;;;755898;184;919246;-63
2022/08/29 08:13:13;;;;;;;12.57;7.47;;;;;;;;;;752588;185;919882;-57
2022/08/29 08:15:39;;;;;;;13.00;8.20;;;;;;;;;;754151;184;919496;-59
2022/08/29 08:18:05;;;;;;;14.43;8.13;;;;;;;;;;754121;184;919404;-59
2022/08/29 08:20:31;;;;;;;14.30;8.10;;;;;;;;;;757004;184;918849;-64
2022/08/29 08:22:57;;;;;;;12.50;7.97;;;;;;;;;;751425;184;918490;-57
2022/08/29 08:25:23;;;;;;;13.07;8.43;;;;;;;;;;752004;184;904702;-59
2022/08/29 08:27:48;;;;;;;9.90;7.97;;;;;;;;;;750893;183;919775;-63
2022/08/29 08:30:14;;;;;;;15.37;9.13;;;;;;;;;;758848;182;918957;-64
2022/08/29 08:32:40;;;;;;;10.40;8.33;;;;;;;;;;758859;183;615175;-67
2022/08/29 08:35:07;;;;;;;19.87;9.73;;;;;;;;;;757315;184;625818;-65
2022/08/29 08:37:33;;;;;;;12.87;7.57;;;;;;;;;;755244;184;715968;-61
2022/08/29 08:39:59;;;;;;;17.97;8.90;;;;;;;;;;753244;184;815580;-57
2022/08/29 08:42:24;;;;;;;13.33;8.10;;;;;;;;;;754942;182;825093;-57
2022/08/29 08:45:01;;;;;;;13.50;8.10;;;;;;;;;;755201;184;918625;-57
2022/08/29 08:47:27;;;;;;;17.97;8.83;;;;;;;;;;762302;182;816698;-56
2022/08/29 08:49:54;;;;;;;14.87;9.68;;;;;;;;;;755977;184;816411;-56
2022/08/29 08:52:20;;;;;;;9.90;8.07;;;;;;;;;;752916;185;916948;-56
2022/08/29 08:54:46;;;;;;;13.90;9.13;;;;;;;;;;752279;184;919347;-57
2022/08/29 08:57:12;;;;;;;13.10;8.37;;;;;;;;;;757413;183;919947;-59
2022/08/29 08:59:40;;;;;;;13.23;8.50;;;;;;;;;;753122;184;918128;-56
2022/08/29 09:02:10;;;;;;;13.93;9.10;;;;;;;;;;751691;184;816833;-56
2022/08/29 09:04:38;;;;;;;16.35;8.93;;;;;;;;;;752163;184;919309;-58
2022/08/29 09:07:19;;;;;;;22.20;9.37;;;;;;;;;;743560;187;919015;-57
2022/08/29 09:09:51;;;;;;;10.67;7.93;;;;;;;;;;749733;184;922103;-57
2022/08/29 09:12:20;;;;;;;14.20;8.67;;;;;;;;;;755518;184;919199;-60
2022/08/29 09:14:47;;;;;;;13.10;8.80;;;;;;;;;;753028;185;817148;-60
2022/08/29 09:17:14;;;;;;;12.90;7.73;;;;;;;;;;759272;183;919473;-57
2022/08/29 09:19:40;;;;;;;11.50;8.80;;;;;;;;;;748032;185;918946;-60
2022/08/29 09:22:06;;;;;;;13.00;9.20;;;;;;;;;;748736;184;817676;-57
2022/08/29 09:24:32;;;;;;;11.60;9.10;;;;;;;;;;753068;182;914548;-59
2022/08/29 09:26:57;;;;;;;14.57;8.50;;;;;;;;;;758018;181;855451;-60
2022/08/29 09:29:23;;;;;;;11.73;8.83;;;;;;;;;;750159;184;919137;-57
2022/08/29 09:31:55;;;;;;;14.43;7.90;;;;;;;;;;753397;180;918561;-57
2022/08/29 09:34:21;;;;;;;10.80;7.90;;;;;;;;;;759464;184;916751;-56
2022/08/29 09:36:47;;;;;;;18.27;7.50;;;;;;;;;;755189;184;918996;-59
2022/08/29 09:39:16;;;;;;;12.43;6.80;;;;;;;;;;751191;183;931916;-59
2022/08/29 09:41:42;;;;;;;12.40;7.50;;;;;;;;;;756114;184;918697;-57
2022/08/29 09:44:08;;;;;;;11.47;7.50;;;;;;;;;;755698;184;920297;-58
2022/08/29 09:46:34;;;;;;;12.00;6.50;;;;;;;;;;752889;184;916301;-57
2022/08/29 09:49:15;;;;;;;13.00;7.70;;;;;;;;;;753652;184;920551;-58
2022/08/29 09:51:41;;;;;;;14.40;8.27;;;;;;;;;;752329;180;816182;-59
2022/08/29 09:54:13;;;;;;;9.13;6.70;;;;;;;;;;756481;185;816406;-60
2022/08/29 09:56:47;;;;;;;9.10;7.17;;;;;;;;;;754958;184;822964;-60
2022/08/29 09:59:11;;;;;;;12.53;7.43;;;;;;;;;;749624;185;917529;-58
2022/08/29 10:01:38;;;;;;;11.83;6.77;;;;;;;;;;750350;185;919032;-57
2022/08/29 10:04:02;;;;;;;11.30;6.50;;;;;;;;;;760519;184;816584;-60
2022/08/29 10:06:28;;;;;;;14.87;6.50;;;;;;;;;;755063;184;914380;-60
2022/08/29 10:08:55;;;;;;;13.07;6.17;;;;;;;;;;753718;183;920492;-60
2022/08/29 10:11:21;;;;;;;16.87;7.37;;;;;;;;;;752594;185;917076;-57
2022/08/29 10:13:50;;;;;;;8.63;7.00;;;;;;;;;;751888;184;919969;-57
2022/08/29 10:16:15;;;;;;;10.10;6.47;;;;;;;;;;749395;181;918348;-60
2022/08/29 10:18:59;;;;;;;9.30;6.70;;;;;;;;;;749034;184;926618;-63
2022/08/29 10:21:40;;;;;;;8.63;6.43;;;;;;;;;;750891;183;921945;-60
2022/08/29 10:24:22;;;;;;;10.20;6.27;;;;;;;;;;750067;184;919229;-61
2022/08/29 10:26:52;;;;;;;11.80;6.03;;;;;;;;;;747344;185;919884;-60
2022/08/29 10:29:33;;;;;;;9.10;5.20;;;;;;;;;;755210;184;920844;-57
2022/08/29 10:31:58;;;;;;;10.50;5.77;;;;;;;;;;758886;184;922068;-60
2022/08/29 10:34:36;;;;;;;8.30;6.03;;;;;;;;;;752581;184;918683;-58
2022/08/29 10:37:03;;;;;;;9.53;5.97;;;;;;;;;;755333;184;918503;-64
2022/08/29 10:39:34;;;;;;;9.93;6.33;;;;;;;;;;747673;184;919299;-61
2022/08/29 10:42:01;;;;;;;8.97;5.90;;;;;;;;;;758532;184;918689;-63
2022/08/29 10:44:32;;;;;;;10.60;5.63;;;;;;;;;;756392;183;913553;-60
2022/08/29 10:47:03;;;;;;;10.60;6.40;;;;;;;;;;755916;184;920452;-64
2022/08/29 10:49:45;;;;;;;9.40;6.47;;;;;;;;;;755756;184;916502;-62
2022/08/29 10:52:13;;;;;;;9.70;6.67;;;;;;;;;;748155;184;919219;-60
2022/08/29 10:54:42;;;;;;;16.33;7.50;;;;;;;;;;756531;184;913829;-61
2022/08/29 10:57:08;;;;;;;9.30;5.57;;;;;;;;;;757751;184;908965;-60
2022/08/29 10:59:36;;;;;;;9.57;5.50;;;;;;;;;;749402;184;918407;-58
2022/08/29 11:02:03;;;;;;;9.23;5.87;;;;;;;;;;753792;184;919896;-58
2022/08/29 11:04:28;;;;;;;10.00;6.33;;;;;;;;;;753686;185;917718;-57
2022/08/29 11:07:00;;;;;;;9.03;6.40;;;;;;;;;;750507;185;916627;-57
2022/08/29 11:09:28;;;;;;;7.93;4.93;;;;;;;;;;758758;184;820272;-56
2022/08/29 11:11:54;;;;;;;15.30;7.07;;;;;;;;;;747492;184;917841;-57
2022/08/29 11:14:19;;;;;;;8.93;5.60;;;;;;;;;;759228;184;818308;-58
2022/08/29 11:16:45;;;;;;;10.13;5.90;;;;;;;;;;751851;184;908265;-58
2022/08/29 11:19:22;;;;;;;10.67;6.20;;;;;;;;;;752779;184;940609;-58
2022/08/29 11:21:51;;;;;;;7.43;5.03;;;;;;;;;;752904;183;917574;-62
2022/08/29 11:24:17;;;;;;;9.47;6.30;;;;;;;;;;755173;185;932523;-60
2022/08/29 11:26:52;;;;;;;8.48;4.78;;;;;;;;;;753358;184;918971;-59
2022/08/29 11:29:24;;;;;;;10.30;5.53;;;;;;;;;;750279;182;816662;-62
2022/08/29 11:31:55;;;;;;;14.57;5.93;;;;;;;;;;750794;185;918761;-61
2022/08/29 11:34:23;;;;;;;9.87;6.73;;;;;;;;;;754430;184;916920;-61
2022/08/29 11:36:54;;;;;;;7.00;5.50;;;;;;;;;;755761;182;818304;-60
2022/08/29 11:39:21;;;;;;;6.70;5.37;;;;;;;;;;749906;185;919750;-60
2022/08/29 11:41:47;;;;;;;7.63;5.47;;;;;;;;;;747195;185;920343;-60
2022/08/29 11:44:26;;;;;;;7.03;5.10;;;;;;;;;;759588;184;836997;-60
2022/08/29 11:46:52;;;;;;;10.30;6.30;;;;;;;;;;757431;184;915795;-61
2022/08/29 11:49:36;;;;;;;9.00;6.10;;;;;;;;;;754419;181;817267;-60
2022/08/29 11:52:23;;;;;;;8.00;5.60;;;;;;;;;;751915;185;813521;-59
2022/08/29 11:54:49;;;;;;;10.33;5.40;;;;;;;;;;759044;183;913077;-60
2022/08/29 11:57:30;;;;;;;11.55;5.70;;;;;;;;;;753454;183;919553;-58
2022/08/29 11:59:56;;;;;;;7.50;5.50;;;;;;;;;;756896;182;918325;-59
2022/08/29 12:02:38;;;;;;;8.47;5.00;;;;;;;;;;749480;184;918818;-59
2022/08/29 12:05:05;;;;;;;10.90;4.97;;;;;;;;;;751059;184;917491;-60
2022/08/29 12:07:32;;;;;;;8.03;4.87;;;;;;;;;;758809;184;882490;-59
2022/08/29 12:09:58;;;;;;;10.65;4.50;;;;;;;;;;755307;184;883387;-60
2022/08/29 12:12:30;;;;;;;8.00;5.10;;;;;;;;;;750752;185;918903;-59
2022/08/29 12:14:56;;;;;;;8.60;4.90;;;;;;;;;;748009;185;919635;-60
2022/08/29 12:17:36;;;;;;;7.20;4.60;;;;;;;;;;758887;183;920430;-61
2022/08/29 12:20:17;;;;;;;7.47;4.73;;;;;;;;;;759484;183;906452;-60
2022/08/29 12:22:58;;;;;;;9.77;5.50;;;;;;;;;;757678;185;919843;-59
2022/08/29 12:25:27;;;;;;;10.13;5.00;;;;;;;;;;751952;184;919456;-59
2022/08/29 12:27:59;;;;;;;9.17;5.47;;;;;;;;;;747105;185;921636;-59
2022/08/29 12:30:24;;;;;;;10.87;5.10;;;;;;;;;;752364;180;918730;-59
2022/08/29 12:32:56;;;;;;;7.45;5.30;;;;;;;;;;759439;184;915636;-61
2022/08/29 12:35:24;;;;;;;7.27;4.70;;;;;;;;;;760867;184;914733;-60
2022/08/29 12:38:00;;;;;;;8.70;4.60;;;;;;;;;;748442;184;817905;-61
2022/08/29 12:40:31;;;;;;;10.47;5.23;;;;;;;;;;754809;184;918764;-61
2022/08/29 12:42:59;;;;;;;9.53;6.30;;;;;;;;;;748593;185;919189;-59
2022/08/29 12:45:26;;;;;;;12.13;5.30;;;;;;;;;;756672;184;825162;-60
2022/08/29 12:47:51;;;;;;;7.80;4.87;;;;;;;;;;749863;184;919629;-58
2022/08/29 12:50:17;;;;;;;8.17;5.17;;;;;;;;;;754272;184;918320;-60
2022/08/29 12:52:44;;;;;;;7.07;4.30;;;;;;;;;;754033;185;919300;-60
2022/08/29 12:55:16;;;;;;;6.20;4.47;;;;;;;;;;742678;185;918271;-59
2022/08/29 12:57:42;;;;;;;6.25;4.37;;;;;;;;;;749618;185;921923;-59
2022/08/29 13:00:08;;;;;;;10.00;4.87;;;;;;;;;;753557;184;919069;-59
2022/08/29 13:02:34;;;;;;;10.40;4.70;;;;;;;;;;758304;185;917658;-60
2022/08/29 13:04:59;;;;;;;5.95;4.53;;;;;;;;;;738970;187;919347;-60
2022/08/29 13:07:25;;;;;;;7.40;5.07;;;;;;;;;;750017;184;919448;-60
2022/08/29 13:09:52;;;;;;;7.57;4.25;;;;;;;;;;758826;184;918985;-61
2022/08/29 13:12:23;;;;;;;7.83;4.47;;;;;;;;;;755152;184;920741;-59
2022/08/29 13:14:49;;;;;;;11.30;4.70;;;;;;;;;;754721;183;854478;-60
2022/08/29 13:17:15;;;;;;;8.23;5.10;;;;;;;;;;751835;184;827755;-59
2022/08/29 13:19:41;;;;;;;7.43;3.70;;;;;;;;;;761343;184;918971;-60
2022/08/29 13:22:07;;;;;;;9.33;4.97;;;;;;;;;;752880;184;915618;-60
2022/08/29 13:24:33;;;;;;;8.57;4.23;;;;;;;;;;753821;182;815875;-61
2022/08/29 13:26:58;;;;;;;10.30;4.00;;;;;;;;;;755107;184;914047;-59
2022/08/29 13:29:26;;;;;;;6.70;3.97;;;;;;;;;;758906;184;917616;-61
2022/08/29 13:31:58;;;;;;;10.63;5.23;;;;;;;;;;752692;185;816513;-61
2022/08/29 13:34:24;;;;;;;8.10;3.50;;;;;;;;;;750313;181;812767;-60
2022/08/29 13:36:50;;;;;;;8.35;4.45;;;;;;;;;;759500;184;794799;-60
2022/08/29 13:39:25;;;;;;;6.50;3.93;;;;;;;;;;747819;185;919798;-62
2022/08/29 13:42:11;;;;;;;8.13;5.00;;;;;;;;;;755368;184;899477;-59
2022/08/29 13:44:38;;;;;;;5.93;3.87;;;;;;;;;;755836;184;916559;-58
2022/08/29 13:47:10;;;;;;;8.17;4.70;;;;;;;;;;753936;184;918246;-61
2022/08/29 13:49:36;;;;;;;7.50;4.05;;;;;;;;;;747721;184;919603;-60
2022/08/29 13:52:02;;;;;;;5.53;4.40;;;;;;;;;;757532;184;916899;-60
2022/08/29 13:54:28;;;;;;;8.07;4.90;;;;;;;;;;755801;184;819605;-60
2022/08/29 13:56:55;;;;;;;11.00;4.10;;;;;;;;;;752253;184;918650;-59
2022/08/29 13:59:20;;;;;;;7.27;4.00;;;;;;;;;;755322;185;712685;-59
2022/08/29 14:01:46;;;;;;;7.30;4.43;;;;;;;;;;753721;184;914930;-59
2022/08/29 14:04:12;;;;;;;7.43;4.17;;;;;;;;;;754523;180;920574;-58
2022/08/29 14:06:38;;;;;;;6.07;4.25;;;;;;;;;;759068;184;889184;-60
2022/08/29 14:09:05;;;;;;;12.23;4.17;;;;;;;;;;753699;184;899102;-60
2022/08/29 14:11:30;;;;;;;5.27;3.67;;;;;;;;;;747633;185;918458;-60
2022/08/29 14:13:56;;;;;;;9.80;4.33;;;;;;;;;;751987;184;919285;-61
2022/08/29 14:16:21;;;;;;;8.47;4.63;;;;;;;;;;757133;184;920110;-60
2022/08/29 14:18:48;;;;;;;8.13;4.73;;;;;;;;;;755341;182;817383;-60
2022/08/29 14:21:13;;;;;;;5.93;3.83;;;;;;;;;;754382;184;915814;-61